Terminal Aerodrome Forecast
Issued by NWS

Home | Current Version | Previous Version | Text Only | Print | Product List | Glossary On
Versions: 1 2 3 4 5 6 7 8 9 10 11 12
000
FTUS45 KREV 242300
TAFCXP
TAF
KCXP 242335Z 2500/2524 22010G20KT P6SM SKC
     FM250200 VRB04KT P6SM SKC
     FM251100 22010G18KT P6SM SCT200
     FM251900 28022G34KT P6SM SCT100 BKN160=

USA.gov is the U.S. government's official web portal to all federal, state and local government web resources and services.